createdAt,value
2018-05-15T00:02:18.951Z,4.10
2018-05-15T00:04:47.204Z,4.17
2018-05-15T00:07:15.482Z,4.53
2018-05-15T00:09:43.731Z,3.50
2018-05-15T00:12:12.003Z,3.93
2018-05-15T00:14:40.266Z,4.30
2018-05-15T00:17:08.540Z,4.70
2018-05-15T00:19:36.793Z,3.73
2018-05-15T00:22:05.065Z,3.87
2018-05-15T00:24:33.332Z,3.90
2018-05-15T00:27:01.587Z,4.40
2018-05-15T00:29:29.822Z,4.27
2018-05-15T00:31:58.074Z,4.50
2018-05-15T00:34:26.333Z,4.53
2018-05-15T00:36:54.590Z,4.37
2018-05-15T00:39:22.872Z,4.73
2018-05-15T00:41:51.155Z,5.37
2018-05-15T00:44:19.533Z,5.10
2018-05-15T00:46:47.736Z,5.50
2018-05-15T00:49:16.711Z,5.93
2018-05-15T00:51:44.986Z,5.90
2018-05-15T00:54:13.252Z,5.20
2018-05-15T00:56:41.500Z,4.93
2018-05-15T00:59:10.531Z,6.23
2018-05-15T01:01:38.784Z,6.40
2018-05-15T01:04:07.109Z,6.70
2018-05-15T01:06:35.360Z,6.50
2018-05-15T01:09:03.604Z,5.60
2018-05-15T01:11:32.649Z,5.83
2018-05-15T01:14:00.920Z,5.30
2018-05-15T01:16:29.166Z,5.77
2018-05-15T01:18:57.417Z,5.73
2018-05-15T01:21:26.445Z,6.07
2018-05-15T01:23:54.716Z,5.77
2018-05-15T01:26:22.974Z,5.30
2018-05-15T01:28:52.001Z,5.30
2018-05-15T01:31:20.244Z,5.00
2018-05-15T01:33:49.286Z,5.03
2018-05-15T01:36:17.545Z,5.13
2018-05-15T01:38:45.870Z,4.90
2018-05-15T01:41:15.639Z,5.13
2018-05-15T01:43:43.902Z,4.47
2018-05-15T01:46:12.148Z,4.83
2018-05-15T01:48:41.183Z,4.70
2018-05-15T01:51:09.432Z,5.00
2018-05-15T01:53:37.686Z,4.20
2018-05-15T01:56:06.716Z,5.13
2018-05-15T01:58:34.998Z,4.90
2018-05-15T02:01:03.259Z,5.00
2018-05-15T02:03:31.520Z,5.00
2018-05-15T02:05:59.803Z,4.63
2018-05-15T02:08:28.061Z,5.20
2018-05-15T02:10:57.105Z,5.17
2018-05-15T02:13:25.359Z,4.73
2018-05-15T02:15:53.632Z,5.77
2018-05-15T02:18:21.890Z,5.40
2018-05-15T02:20:50.905Z,5.27
2018-05-15T02:23:19.172Z,4.20
2018-05-15T02:25:47.449Z,5.20
2018-05-15T02:28:15.728Z,5.23
2018-05-15T02:30:43.972Z,4.57
2018-05-15T02:33:12.209Z,4.70
2018-05-15T02:35:40.459Z,5.63
2018-05-15T02:38:08.715Z,6.27
2018-05-15T02:40:37.734Z,4.73
2018-05-15T02:43:05.999Z,4.90
2018-05-15T02:45:34.250Z,4.80
2018-05-15T02:48:03.267Z,4.27
2018-05-15T02:50:31.511Z,4.63
2018-05-15T02:52:59.786Z,4.63
2018-05-15T02:55:28.040Z,5.57
2018-05-15T02:57:56.354Z,4.80
2018-05-15T03:00:24.593Z,5.30
2018-05-15T03:02:52.864Z,5.53
2018-05-15T03:05:21.162Z,4.83
2018-05-15T03:07:49.435Z,5.10
2018-05-15T03:10:17.699Z,4.77
2018-05-15T03:12:45.985Z,4.87
2018-05-15T03:15:15.008Z,5.37
2018-05-15T03:17:44.042Z,5.60
2018-05-15T03:20:13.528Z,5.30
2018-05-15T03:22:41.784Z,5.30
2018-05-15T03:25:10.052Z,5.23
2018-05-15T03:27:39.068Z,5.30
2018-05-15T03:30:07.318Z,5.00
2018-05-15T03:32:36.362Z,4.70
2018-05-15T03:35:04.629Z,5.00
2018-05-15T03:37:32.864Z,4.97
2018-05-15T03:40:01.878Z,4.40
2018-05-15T03:42:30.145Z,4.00
2018-05-15T03:44:58.421Z,5.53
2018-05-15T03:47:26.689Z,5.70
2018-05-15T03:49:55.792Z,5.63
2018-05-15T03:52:24.072Z,4.80
2018-05-15T03:54:53.090Z,5.60
2018-05-15T03:57:21.334Z,4.67
2018-05-15T03:59:49.602Z,5.60
2018-05-15T04:02:30.750Z,5.03
2018-05-15T04:05:10.970Z,5.60
2018-05-15T04:10:45.237Z,5.60
2018-05-15T04:13:13.679Z,6.10
2018-05-15T04:15:41.955Z,5.17
2018-05-15T04:18:10.211Z,4.93
2018-05-15T04:20:39.238Z,5.00
2018-05-15T04:23:07.490Z,5.80
2018-05-15T04:25:35.742Z,5.33
2018-05-15T04:28:04.876Z,5.20
2018-05-15T04:30:33.091Z,4.40
2018-05-15T04:33:01.336Z,5.30
2018-05-15T04:35:29.644Z,5.40
2018-05-15T04:37:57.956Z,5.53
2018-05-15T04:40:26.976Z,6.10
2018-05-15T04:42:55.381Z,6.63
2018-05-15T04:45:23.660Z,6.17
2018-05-15T04:47:51.906Z,6.47
2018-05-15T04:50:20.944Z,6.10
2018-05-15T04:52:49.267Z,5.43
2018-05-15T04:55:18.299Z,5.87
2018-05-15T04:57:46.587Z,5.13
2018-05-15T05:00:14.884Z,5.33
2018-05-15T05:02:43.191Z,4.67
2018-05-15T05:05:11.445Z,5.20
2018-05-15T05:07:40.473Z,4.13
2018-05-15T05:10:08.736Z,6.20
2018-05-15T05:12:37.047Z,5.43
2018-05-15T05:15:05.301Z,6.40
2018-05-15T05:17:33.560Z,6.03
2018-05-15T05:20:02.613Z,6.23
2018-05-15T05:22:31.701Z,5.50
2018-05-15T05:25:00.754Z,6.10
2018-05-15T05:27:29.785Z,6.57
2018-05-15T05:29:58.089Z,6.87
2018-05-15T05:32:27.121Z,5.50
2018-05-15T05:34:55.398Z,6.40
2018-05-15T05:37:23.679Z,6.77
2018-05-15T05:39:51.948Z,6.10
2018-05-15T05:42:20.198Z,7.43
2018-05-15T05:44:49.282Z,6.90
2018-05-15T05:47:17.584Z,7.23
2018-05-15T05:49:46.621Z,6.10
2018-05-15T05:52:14.870Z,5.87
2018-05-15T05:54:43.122Z,6.57
2018-05-15T05:57:12.143Z,6.33
2018-05-15T05:59:40.582Z,6.20
2018-05-15T06:02:08.883Z,6.80
2018-05-15T06:04:37.967Z,6.40
2018-05-15T06:07:06.987Z,6.87
2018-05-15T06:09:35.257Z,6.20
2018-05-15T06:12:03.514Z,6.87
2018-05-15T06:14:31.771Z,7.00
2018-05-15T06:17:00.785Z,5.37
2018-05-15T06:19:29.030Z,5.80
2018-05-15T06:21:57.275Z,6.70
2018-05-15T06:24:25.575Z,6.30
2018-05-15T06:26:54.666Z,6.30
2018-05-15T06:29:22.936Z,6.27
2018-05-15T06:31:51.203Z,6.10
2018-05-15T06:34:19.496Z,5.50
2018-05-15T06:36:47.758Z,5.27
2018-05-15T06:39:16.021Z,5.70
2018-05-15T06:41:44.277Z,5.53
2018-05-15T06:44:12.569Z,6.00
2018-05-15T06:46:40.827Z,5.07
2018-05-15T06:49:09.108Z,5.40
2018-05-15T06:51:37.517Z,5.77
2018-05-15T06:54:05.816Z,5.70
2018-05-15T06:56:34.068Z,5.53
2018-05-15T06:59:03.275Z,5.70
2018-05-15T07:01:31.533Z,5.33
2018-05-15T07:03:59.777Z,5.87
2018-05-15T07:06:28.057Z,5.33
2018-05-15T07:08:57.139Z,5.20
2018-05-15T07:11:26.174Z,5.10
2018-05-15T07:13:54.439Z,5.63
2018-05-15T07:16:22.712Z,6.17
2018-05-15T07:18:50.999Z,5.67
2018-05-15T07:21:19.270Z,5.60
2018-05-15T07:23:47.667Z,4.90
2018-05-15T07:26:15.916Z,5.40
2018-05-15T07:28:44.181Z,5.57
2018-05-15T07:31:12.449Z,4.90
2018-05-15T07:33:41.438Z,4.70
2018-05-15T07:36:10.459Z,4.67
2018-05-15T07:38:38.736Z,5.37
2018-05-15T07:41:06.992Z,5.57
2018-05-15T07:43:35.251Z,4.60
2018-05-15T07:46:04.502Z,4.63
2018-05-15T07:48:32.753Z,5.03
2018-05-15T07:51:01.014Z,4.87
2018-05-15T07:53:30.032Z,4.60
2018-05-15T07:55:58.283Z,4.70
2018-05-15T07:58:27.662Z,5.10
2018-05-15T08:00:55.922Z,5.17
2018-05-15T08:03:24.262Z,4.80
2018-05-15T08:05:52.513Z,5.50
2018-05-15T08:08:21.545Z,4.70
2018-05-15T08:10:49.832Z,4.57
2018-05-15T08:13:18.029Z,4.30
2018-05-15T08:15:47.094Z,4.37
2018-05-15T08:18:15.888Z,4.83
2018-05-15T08:20:44.139Z,5.23
2018-05-15T08:23:12.392Z,5.20
2018-05-15T08:25:41.430Z,5.10
2018-05-15T08:28:09.675Z,5.03
2018-05-15T08:30:37.953Z,5.40
2018-05-15T08:33:06.198Z,5.50
2018-05-15T08:35:35.228Z,4.83
2018-05-15T08:38:03.536Z,5.27
2018-05-15T08:40:31.781Z,5.50
2018-05-15T08:43:00.035Z,4.90
2018-05-15T08:45:28.384Z,5.40
2018-05-15T08:47:56.562Z,5.43
2018-05-15T08:50:25.576Z,5.00
2018-05-15T08:52:53.829Z,5.60
2018-05-15T08:55:22.099Z,6.57
2018-05-15T08:57:51.853Z,5.40
2018-05-15T09:00:20.122Z,5.40
2018-05-15T09:02:48.387Z,5.10
2018-05-15T09:05:17.429Z,5.70
2018-05-15T09:07:45.684Z,5.40
2018-05-15T09:10:13.947Z,6.53
2018-05-15T09:12:42.211Z,5.30
2018-05-15T09:15:10.554Z,5.10
2018-05-15T09:17:38.817Z,5.10
2018-05-15T09:20:07.097Z,5.87
2018-05-15T09:22:35.428Z,5.60
2018-05-15T09:25:03.668Z,4.87
2018-05-15T09:27:31.953Z,5.20
2018-05-15T09:30:01.005Z,5.17
2018-05-15T09:32:29.245Z,5.40
2018-05-15T09:34:57.555Z,5.13
2018-05-15T09:37:25.824Z,5.17
2018-05-15T09:39:54.529Z,4.93
2018-05-15T09:42:22.848Z,6.20
2018-05-15T09:44:51.113Z,4.90
2018-05-15T09:47:20.144Z,5.70
2018-05-15T09:49:48.386Z,4.43
2018-05-15T09:52:18.425Z,4.73
2018-05-15T09:54:46.731Z,5.17
2018-05-15T09:57:14.996Z,5.33
2018-05-15T09:59:43.436Z,5.50
2018-05-15T10:02:12.539Z,5.90
2018-05-15T10:04:40.802Z,5.07
2018-05-15T10:07:09.844Z,5.50
2018-05-15T10:09:38.100Z,4.83
2018-05-15T10:12:06.414Z,4.83
2018-05-15T10:14:35.643Z,5.20
2018-05-15T10:17:04.689Z,5.00
2018-05-15T10:19:32.962Z,5.60
2018-05-15T10:22:01.846Z,5.13
2018-05-15T10:24:30.218Z,5.00
2018-05-15T10:27:00.077Z,4.97
2018-05-15T10:29:28.328Z,5.70
2018-05-15T10:31:56.737Z,4.60
2018-05-15T10:34:25.758Z,4.73
2018-05-15T10:36:54.006Z,4.83
2018-05-15T10:39:22.265Z,4.93
2018-05-15T10:41:50.528Z,4.57
2018-05-15T10:44:18.764Z,5.00
2018-05-15T10:46:47.046Z,4.90
2018-05-15T10:49:15.339Z,4.97
2018-05-15T10:51:43.595Z,4.73
2018-05-15T10:54:11.915Z,4.37
2018-05-15T10:56:40.204Z,4.50
2018-05-15T10:59:08.465Z,5.10
2018-05-15T11:01:36.756Z,4.80
2018-05-15T11:04:05.450Z,4.53
2018-05-15T11:06:34.548Z,5.10
2018-05-15T11:09:03.579Z,5.00
2018-05-15T11:11:31.845Z,4.60
2018-05-15T11:14:00.132Z,4.43
2018-05-15T11:16:28.389Z,4.67
2018-05-15T11:18:56.670Z,5.13
2018-05-15T11:21:36.826Z,5.23
2018-05-15T11:24:30.909Z,5.87
2018-05-15T11:26:59.125Z,4.63
2018-05-15T11:29:27.397Z,5.13
2018-05-15T11:31:55.690Z,4.83
2018-05-15T11:34:23.978Z,5.70
2018-05-15T11:36:52.787Z,5.37
2018-05-15T11:39:21.808Z,4.90
2018-05-15T11:41:50.173Z,4.93
2018-05-15T11:44:18.445Z,5.07
2018-05-15T11:46:47.477Z,5.33
2018-05-15T11:49:16.257Z,5.50
2018-05-15T11:51:44.767Z,4.60
2018-05-15T11:54:12.925Z,4.70
2018-05-15T11:56:41.198Z,4.63
2018-05-15T11:59:09.470Z,5.30
2018-05-15T12:01:37.750Z,4.50
2018-05-15T12:04:06.051Z,4.77
2018-05-15T12:06:34.312Z,5.87
2018-05-15T12:09:02.728Z,5.30
2018-05-15T12:11:30.965Z,5.70
2018-05-15T12:14:00.190Z,4.47
2018-05-15T12:16:28.537Z,5.13
2018-05-15T12:18:56.784Z,5.33
2018-05-15T12:21:26.901Z,4.83
2018-05-15T12:23:55.185Z,4.83
2018-05-15T12:26:23.442Z,5.33
2018-05-15T12:28:51.708Z,4.90
2018-05-15T12:31:20.728Z,5.20
2018-05-15T12:33:49.008Z,5.40
2018-05-15T12:36:17.279Z,5.40
2018-05-15T12:38:47.507Z,5.40
2018-05-15T12:41:15.829Z,5.67
2018-05-15T12:43:44.091Z,5.90
2018-05-15T12:46:14.845Z,5.57
2018-05-15T12:48:43.118Z,5.70
2018-05-15T12:51:12.220Z,5.30
2018-05-15T12:53:41.251Z,5.40
2018-05-15T12:56:09.511Z,5.13
2018-05-15T12:58:37.851Z,5.63
2018-05-15T13:01:06.106Z,4.77
2018-05-15T13:03:34.546Z,5.10
2018-05-15T13:06:02.860Z,4.53
2018-05-15T13:08:31.153Z,5.13
2018-05-15T13:10:59.421Z,4.93
2018-05-15T13:13:27.692Z,4.70
2018-05-15T13:15:55.986Z,4.97
2018-05-15T13:18:24.279Z,5.30
2018-05-15T13:20:52.534Z,5.27
2018-05-15T13:23:22.315Z,5.20
2018-05-15T13:25:50.591Z,5.83
2018-05-15T13:28:19.620Z,4.80
2018-05-15T13:30:47.889Z,4.40
2018-05-15T13:33:16.161Z,4.67
2018-05-15T13:35:44.430Z,6.03
2018-05-15T13:38:12.714Z,7.30
2018-05-15T13:40:40.977Z,4.97
2018-05-15T13:43:09.232Z,4.80
2018-05-15T13:45:37.545Z,5.10
2018-05-15T13:48:05.827Z,5.00
2018-05-15T13:50:34.919Z,4.70
2018-05-15T13:53:03.921Z,5.00
2018-05-15T13:55:32.974Z,4.57
2018-05-15T13:58:01.220Z,4.80
2018-05-15T14:00:29.507Z,4.80
2018-05-15T14:02:57.775Z,5.00
2018-05-15T14:05:26.099Z,5.50
2018-05-15T14:07:54.435Z,5.07
2018-05-15T14:10:23.444Z,4.90
2018-05-15T14:12:51.729Z,5.20
2018-05-15T14:15:20.018Z,5.00
2018-05-15T14:17:48.285Z,4.77
2018-05-15T14:20:16.576Z,5.90
2018-05-15T14:22:44.844Z,4.97
2018-05-15T14:25:13.162Z,5.30
2018-05-15T14:27:41.544Z,5.43
2018-05-15T14:30:09.911Z,5.50
2018-05-15T14:32:38.263Z,5.13
2018-05-15T14:35:06.538Z,4.60
2018-05-15T14:37:34.797Z,5.30
2018-05-15T14:40:03.058Z,5.10
2018-05-15T14:42:43.718Z,4.70
2018-05-15T14:45:16.852Z,6.13
2018-05-15T14:47:46.155Z,5.03
2018-05-15T14:50:14.458Z,4.83
2018-05-15T14:52:43.491Z,4.57
2018-05-15T14:55:12.070Z,5.20
2018-05-15T14:57:40.341Z,4.70
2018-05-15T15:00:08.588Z,4.47
2018-05-15T15:02:37.608Z,4.87
2018-05-15T15:05:05.884Z,4.73
2018-05-15T15:07:34.156Z,4.40
2018-05-15T15:10:02.476Z,4.23
2018-05-15T15:12:30.745Z,4.67
2018-05-15T15:14:59.025Z,4.47
2018-05-15T15:17:27.411Z,4.80
2018-05-15T15:19:55.685Z,4.50
2018-05-15T15:22:23.963Z,4.47
2018-05-15T15:24:53.019Z,4.07
2018-05-15T15:27:21.331Z,4.87
2018-05-15T15:29:49.584Z,4.33
2018-05-15T15:32:17.939Z,5.03
2018-05-15T15:34:46.779Z,4.93
2018-05-15T15:37:15.068Z,4.50
2018-05-15T15:39:44.596Z,4.73
2018-05-15T15:42:16.516Z,4.80
2018-05-15T15:44:45.710Z,5.83
2018-05-15T15:47:14.032Z,4.47
2018-05-15T15:49:43.074Z,4.93
2018-05-15T15:52:11.365Z,5.87
2018-05-15T15:54:39.628Z,5.00
2018-05-15T15:57:07.884Z,5.00
2018-05-15T15:59:36.137Z,5.43
2018-05-15T16:02:05.157Z,4.90
2018-05-15T16:04:33.491Z,5.40
2018-05-15T16:07:02.501Z,4.37
2018-05-15T16:09:32.168Z,5.33
2018-05-15T16:12:00.427Z,4.93
2018-05-15T16:14:28.712Z,4.87
2018-05-15T16:16:56.955Z,5.10
2018-05-15T16:19:25.233Z,4.70
2018-05-15T16:21:53.530Z,4.40
2018-05-15T16:24:21.857Z,5.10
2018-05-15T16:26:50.867Z,5.50
2018-05-15T16:29:19.145Z,5.20
2018-05-15T16:31:47.409Z,5.60
2018-05-15T16:34:16.457Z,5.23
2018-05-15T16:36:44.714Z,5.70
2018-05-15T16:39:12.972Z,6.37
2018-05-15T16:41:41.242Z,8.20
2018-05-15T16:44:09.526Z,6.10
2018-05-15T16:46:37.807Z,5.10
2018-05-15T16:49:06.072Z,5.60
2018-05-15T16:51:34.334Z,5.53
2018-05-15T16:54:03.401Z,4.93
2018-05-15T16:56:31.656Z,5.90
2018-05-15T16:58:59.913Z,7.73
2018-05-15T17:01:28.162Z,6.10
2018-05-15T17:03:56.443Z,6.20
2018-05-15T17:06:24.886Z,5.40
2018-05-15T17:08:53.214Z,5.17
2018-05-15T17:11:21.478Z,5.30
2018-05-15T17:13:49.795Z,5.90
2018-05-15T17:16:18.040Z,5.93
2018-05-15T17:18:46.309Z,6.70
2018-05-15T17:21:14.584Z,5.93
2018-05-15T17:23:42.845Z,5.37
2018-05-15T17:26:11.882Z,5.43
2018-05-15T17:28:40.146Z,5.90
2018-05-15T17:31:08.699Z,5.97
2018-05-15T17:33:37.036Z,5.93
2018-05-15T17:36:05.404Z,5.60
2018-05-15T17:38:33.742Z,5.60
2018-05-15T17:41:02.767Z,4.87
2018-05-15T17:43:31.019Z,6.50
2018-05-15T17:45:59.388Z,4.47
2018-05-15T17:48:28.443Z,3.50
2018-05-15T17:50:56.756Z,2.93
2018-05-15T17:53:25.015Z,3.20
2018-05-15T17:55:54.050Z,2.67
2018-05-15T17:58:22.313Z,3.47
2018-05-15T18:00:50.565Z,4.00
2018-05-15T18:03:18.862Z,3.10
2018-05-15T18:05:47.874Z,3.80
2018-05-15T18:08:16.192Z,3.40
2018-05-15T18:10:44.448Z,6.43
2018-05-15T18:13:12.732Z,3.30
2018-05-15T18:15:41.018Z,3.37
2018-05-15T18:18:09.399Z,3.70
2018-05-15T18:20:37.752Z,2.90
2018-05-15T18:23:05.999Z,2.57
2018-05-15T18:25:34.257Z,2.87
2018-05-15T18:28:03.294Z,3.60
2018-05-15T18:30:31.590Z,2.57
2018-05-15T18:32:59.861Z,2.70
2018-05-15T18:35:28.111Z,3.57
2018-05-15T18:37:56.371Z,2.73
2018-05-15T18:40:24.780Z,2.47
2018-05-15T18:42:53.176Z,2.40
2018-05-15T18:45:21.535Z,2.30
2018-05-15T18:47:49.823Z,2.70
2018-05-15T18:50:18.154Z,2.87
2018-05-15T18:52:46.428Z,2.13
2018-05-15T18:55:15.536Z,2.53
2018-05-15T18:57:43.802Z,3.40
2018-05-15T19:00:12.092Z,2.57
2018-05-15T19:02:40.354Z,2.87
2018-05-15T19:05:08.617Z,3.50
2018-05-15T19:07:37.645Z,2.90
2018-05-15T19:10:05.921Z,3.10
2018-05-15T19:12:34.195Z,3.30
2018-05-15T19:15:02.486Z,3.03
2018-05-15T19:17:31.821Z,2.83
2018-05-15T19:20:00.099Z,3.80
2018-05-15T19:22:28.362Z,3.40
2018-05-15T19:24:56.649Z,3.33
2018-05-15T19:27:24.919Z,3.10
2018-05-15T19:29:53.178Z,3.87
2018-05-15T19:32:27.125Z,3.43
2018-05-15T19:34:56.816Z,3.90
2018-05-15T19:37:25.908Z,3.40
2018-05-15T19:39:56.701Z,3.03
2018-05-15T19:42:24.953Z,4.17
2018-05-15T19:44:53.253Z,3.90
2018-05-15T19:47:22.233Z,3.60
2018-05-15T19:49:50.518Z,3.03
2018-05-15T19:52:18.766Z,3.03
2018-05-15T19:54:47.823Z,3.63
2018-05-15T19:57:16.064Z,3.30
2018-05-15T19:59:44.343Z,3.00
2018-05-15T20:02:12.593Z,3.27
2018-05-15T20:04:40.865Z,3.07
2018-05-15T20:07:09.901Z,3.43
2018-05-15T20:09:39.084Z,6.70
2018-05-15T20:12:07.396Z,3.90
2018-05-15T20:14:35.661Z,3.93
2018-05-15T20:17:03.911Z,3.17
2018-05-15T20:19:32.167Z,3.30
2018-05-15T20:22:01.203Z,3.63
2018-05-15T20:24:29.500Z,5.53
2018-05-15T20:26:57.744Z,5.03
2018-05-15T20:29:26.099Z,5.33
2018-05-15T20:31:54.373Z,4.57
2018-05-15T20:34:22.629Z,5.37
2018-05-15T20:36:51.627Z,5.00
2018-05-15T20:39:20.645Z,6.40
2018-05-15T20:41:48.922Z,6.83
2018-05-15T20:44:17.251Z,5.60
2018-05-15T20:46:45.511Z,6.83
2018-05-15T20:49:13.787Z,7.00
2018-05-15T20:51:42.041Z,6.90
2018-05-15T20:54:10.311Z,7.40
2018-05-15T20:56:38.598Z,6.97
2018-05-15T20:59:06.859Z,7.00
2018-05-15T21:01:35.128Z,6.90
2018-05-15T21:04:03.396Z,6.30
2018-05-15T21:06:32.426Z,8.03
2018-05-15T21:09:00.680Z,6.67
2018-05-15T21:11:28.953Z,8.90
2018-05-15T21:13:57.217Z,10.33
2018-05-15T21:16:25.498Z,10.17
2018-05-15T21:18:53.771Z,10.17
2018-05-15T21:21:22.782Z,9.10
2018-05-15T21:23:51.050Z,9.30
2018-05-15T21:26:19.342Z,7.90
2018-05-15T21:28:47.607Z,8.03
2018-05-15T21:31:15.859Z,7.13
2018-05-15T21:33:44.899Z,6.30
2018-05-15T21:36:13.139Z,7.50
2018-05-15T21:38:41.387Z,6.33
2018-05-15T21:41:10.430Z,6.93
2018-05-15T21:43:38.695Z,6.80
2018-05-15T21:46:06.944Z,5.87
2018-05-15T21:48:35.964Z,8.00
2018-05-15T21:51:04.217Z,6.53
2018-05-15T21:53:32.481Z,6.10
2018-05-15T21:56:01.509Z,7.27
2018-05-15T21:58:29.774Z,7.37
2018-05-15T22:00:58.057Z,8.23
2018-05-15T22:03:26.325Z,7.83
2018-05-15T22:05:54.570Z,6.83
2018-05-15T22:08:22.840Z,7.43
2018-05-15T22:10:51.126Z,8.70
2018-05-15T22:13:32.992Z,8.47
2018-05-15T22:16:13.210Z,9.20
2018-05-15T22:18:53.915Z,10.50
2018-05-15T22:21:33.904Z,13.10
2018-05-15T22:24:02.634Z,11.30
2018-05-15T22:26:30.888Z,13.33
2018-05-15T22:28:59.722Z,12.97
2018-05-15T22:31:27.982Z,12.10
2018-05-15T22:33:56.246Z,12.10
2018-05-15T22:36:24.527Z,13.17
2018-05-15T22:38:52.850Z,14.20
2018-05-15T22:41:21.101Z,11.90
2018-05-15T22:43:49.391Z,13.23
2018-05-15T22:46:17.664Z,13.50
2018-05-15T22:48:45.923Z,14.10
2018-05-15T22:51:14.256Z,13.63
2018-05-15T22:53:42.549Z,11.13
2018-05-15T22:56:10.802Z,11.47
2018-05-15T22:58:39.064Z,12.03
2018-05-15T23:01:08.163Z,12.17
2018-05-15T23:03:37.194Z,13.13
2018-05-15T23:06:05.446Z,12.27
2018-05-15T23:08:33.709Z,12.10
2018-05-15T23:11:02.729Z,12.30
2018-05-15T23:13:30.990Z,12.03
2018-05-15T23:15:59.245Z,12.70
2018-05-15T23:18:28.307Z,12.90
2018-05-15T23:20:56.558Z,12.03
2018-05-15T23:23:24.813Z,11.20
2018-05-15T23:25:53.160Z,12.80
2018-05-15T23:28:21.431Z,13.50
2018-05-15T23:30:49.685Z,13.77
2018-05-15T23:33:17.950Z,13.23
2018-05-15T23:35:46.215Z,15.00
2018-05-15T23:38:14.463Z,15.20
2018-05-15T23:40:42.722Z,13.80
2018-05-15T23:43:12.260Z,15.50
2018-05-15T23:45:40.522Z,14.90
2018-05-15T23:48:09.572Z,14.83
2018-05-15T23:50:37.816Z,14.70
2018-05-15T23:53:06.073Z,17.33
2018-05-15T23:55:34.350Z,16.60
2018-05-15T23:58:02.615Z,17.03
